Terminal Aerodrome Forecast
Issued by NWS Knoxville/Tri Cities, TN

Home | Current Version | Previous Version | Text Only | Print | Product List | Glossary On
Versions: 1 2 3 4 5 6 7 8 9 10 11 12 13
000
FTUS44 KMRX 211127
TAFTYS
TAF
KTYS 211127Z 2112/2212 VRB03KT P6SM SCT050 BKN150
      TEMPO 2112/2114 4SM BR BKN015
     FM211800 30004KT 6SM -TSRA BR OVC025CB
     FM212300 VRB03KT P6SM BKN035
     FM220300 12003KT 4SM BR OVC025
     FM220900 VRB05KT 3SM -TSRA BR BKN015 OVC025CB=

USA.gov is the U.S. government's official web portal to all federal, state and local government web resources and services.